sensor_id;sensor_type;location;lat;lon;timestamp;P1;durP1;ratioP1;P2;durP2;ratioP2
20022;SDS011;10172;42.054;24.546;2023-08-06T00:02:19;4.45;;;2.90;;
20022;SDS011;10172;42.054;24.546;2023-08-06T00:04:45;5.30;;;3.15;;
20022;SDS011;10172;42.054;24.546;2023-08-06T00:07:10;5.07;;;3.22;;
20022;SDS011;10172;42.054;24.546;2023-08-06T00:09:36;6.45;;;3.70;;
20022;SDS011;10172;42.054;24.546;2023-08-06T00:12:01;4.00;;;3.00;;
20022;SDS011;10172;42.054;24.546;2023-08-06T00:14:27;5.15;;;3.42;;
20022;SDS011;10172;42.054;24.546;2023-08-06T00:16:52;6.50;;;3.38;;
20022;SDS011;10172;42.054;24.546;2023-08-06T00:19:18;6.65;;;3.70;;
20022;SDS011;10172;42.054;24.546;2023-08-06T00:21:43;5.70;;;3.22;;
20022;SDS011;10172;42.054;24.546;2023-08-06T00:24:09;7.47;;;3.00;;
20022;SDS011;10172;42.054;24.546;2023-08-06T00:26:34;6.20;;;3.30;;
20022;SDS011;10172;42.054;24.546;2023-08-06T00:29:00;5.25;;;3.22;;
20022;SDS011;10172;42.054;24.546;2023-08-06T00:31:25;4.88;;;3.22;;
20022;SDS011;10172;42.054;24.546;2023-08-06T00:33:50;6.60;;;3.80;;
20022;SDS011;10172;42.054;24.546;2023-08-06T00:36:16;6.15;;;3.33;;
20022;SDS011;10172;42.054;24.546;2023-08-06T00:38:41;4.68;;;3.05;;
20022;SDS011;10172;42.054;24.546;2023-08-06T00:41:07;5.10;;;2.80;;
20022;SDS011;10172;42.054;24.546;2023-08-06T00:43:32;5.93;;;2.97;;
20022;SDS011;10172;42.054;24.546;2023-08-06T00:45:58;7.18;;;3.20;;
20022;SDS011;10172;42.054;24.546;2023-08-06T00:48:23;6.03;;;3.40;;
20022;SDS011;10172;42.054;24.546;2023-08-06T00:50:49;6.15;;;3.88;;
20022;SDS011;10172;42.054;24.546;2023-08-06T00:53:14;6.28;;;3.85;;
20022;SDS011;10172;42.054;24.546;2023-08-06T00:55:40;6.70;;;3.03;;
20022;SDS011;10172;42.054;24.546;2023-08-06T00:58:09;7.13;;;2.92;;
20022;SDS011;10172;42.054;24.546;2023-08-06T01:00:35;7.43;;;2.88;;
20022;SDS011;10172;42.054;24.546;2023-08-06T01:03:00;5.93;;;3.58;;
20022;SDS011;10172;42.054;24.546;2023-08-06T01:05:26;5.55;;;3.35;;
20022;SDS011;10172;42.054;24.546;2023-08-06T01:10:48;6.32;;;3.63;;
20022;SDS011;10172;42.054;24.546;2023-08-06T01:16:11;8.10;;;3.70;;
20022;SDS011;10172;42.054;24.546;2023-08-06T01:18:40;6.40;;;3.28;;
20022;SDS011;10172;42.054;24.546;2023-08-06T01:21:08;5.97;;;3.65;;
20022;SDS011;10172;42.054;24.546;2023-08-06T01:23:33;5.47;;;3.03;;
20022;SDS011;10172;42.054;24.546;2023-08-06T01:26:05;6.40;;;3.38;;
20022;SDS011;10172;42.054;24.546;2023-08-06T01:28:45;8.68;;;3.78;;
20022;SDS011;10172;42.054;24.546;2023-08-06T01:31:18;6.65;;;3.20;;
20022;SDS011;10172;42.054;24.546;2023-08-06T01:33:48;6.65;;;2.88;;
20022;SDS011;10172;42.054;24.546;2023-08-06T01:36:15;7.32;;;3.50;;
20022;SDS011;10172;42.054;24.546;2023-08-06T01:38:42;5.30;;;3.53;;
20022;SDS011;10172;42.054;24.546;2023-08-06T01:41:08;7.10;;;3.35;;
20022;SDS011;10172;42.054;24.546;2023-08-06T01:43:33;9.55;;;4.38;;
20022;SDS011;10172;42.054;24.546;2023-08-06T01:45:58;4.70;;;3.20;;
20022;SDS011;10172;42.054;24.546;2023-08-06T01:48:24;5.82;;;3.45;;
20022;SDS011;10172;42.054;24.546;2023-08-06T01:50:49;4.88;;;3.20;;
20022;SDS011;10172;42.054;24.546;2023-08-06T01:53:15;6.00;;;4.00;;
20022;SDS011;10172;42.054;24.546;2023-08-06T01:55:40;5.40;;;3.35;;
20022;SDS011;10172;42.054;24.546;2023-08-06T01:58:06;6.93;;;3.65;;
20022;SDS011;10172;42.054;24.546;2023-08-06T02:00:31;7.28;;;3.60;;
20022;SDS011;10172;42.054;24.546;2023-08-06T02:02:56;5.80;;;3.45;;
20022;SDS011;10172;42.054;24.546;2023-08-06T02:05:22;6.38;;;3.40;;
20022;SDS011;10172;42.054;24.546;2023-08-06T02:07:47;12.25;;;3.80;;
20022;SDS011;10172;42.054;24.546;2023-08-06T02:10:13;8.65;;;3.60;;
20022;SDS011;10172;42.054;24.546;2023-08-06T02:12:38;4.82;;;3.42;;
20022;SDS011;10172;42.054;24.546;2023-08-06T02:15:04;7.07;;;3.45;;
20022;SDS011;10172;42.054;24.546;2023-08-06T02:17:30;5.32;;;3.78;;
20022;SDS011;10172;42.054;24.546;2023-08-06T02:19:55;4.93;;;3.55;;
20022;SDS011;10172;42.054;24.546;2023-08-06T02:22:21;7.85;;;3.92;;
20022;SDS011;10172;42.054;24.546;2023-08-06T02:24:48;9.18;;;4.15;;
20022;SDS011;10172;42.054;24.546;2023-08-06T02:27:14;7.30;;;3.72;;
20022;SDS011;10172;42.054;24.546;2023-08-06T02:29:40;6.25;;;3.90;;
20022;SDS011;10172;42.054;24.546;2023-08-06T02:32:06;5.55;;;3.33;;
20022;SDS011;10172;42.054;24.546;2023-08-06T02:34:32;6.32;;;3.70;;
20022;SDS011;10172;42.054;24.546;2023-08-06T02:36:58;6.00;;;3.72;;
20022;SDS011;10172;42.054;24.546;2023-08-06T02:39:23;7.40;;;3.95;;
20022;SDS011;10172;42.054;24.546;2023-08-06T02:41:49;4.40;;;3.42;;
20022;SDS011;10172;42.054;24.546;2023-08-06T02:44:14;5.65;;;3.95;;
20022;SDS011;10172;42.054;24.546;2023-08-06T02:46:40;5.72;;;3.85;;
20022;SDS011;10172;42.054;24.546;2023-08-06T02:49:06;5.47;;;3.70;;
20022;SDS011;10172;42.054;24.546;2023-08-06T02:51:31;7.18;;;4.07;;
20022;SDS011;10172;42.054;24.546;2023-08-06T02:53:57;5.80;;;4.05;;
20022;SDS011;10172;42.054;24.546;2023-08-06T02:56:22;5.97;;;3.90;;
20022;SDS011;10172;42.054;24.546;2023-08-06T02:58:48;5.03;;;3.53;;
20022;SDS011;10172;42.054;24.546;2023-08-06T03:01:13;7.72;;;3.95;;
20022;SDS011;10172;42.054;24.546;2023-08-06T03:03:39;8.50;;;4.03;;
20022;SDS011;10172;42.054;24.546;2023-08-06T03:06:04;6.05;;;4.07;;
20022;SDS011;10172;42.054;24.546;2023-08-06T03:08:30;7.18;;;4.18;;
20022;SDS011;10172;42.054;24.546;2023-08-06T03:10:55;7.65;;;4.00;;
20022;SDS011;10172;42.054;24.546;2023-08-06T03:13:21;5.80;;;3.92;;
20022;SDS011;10172;42.054;24.546;2023-08-06T03:15:56;5.65;;;3.90;;
20022;SDS011;10172;42.054;24.546;2023-08-06T03:18:25;5.60;;;4.15;;
20022;SDS011;10172;42.054;24.546;2023-08-06T03:20:53;9.52;;;4.63;;
20022;SDS011;10172;42.054;24.546;2023-08-06T03:23:19;8.32;;;4.07;;
20022;SDS011;10172;42.054;24.546;2023-08-06T03:25:45;8.27;;;4.50;;
20022;SDS011;10172;42.054;24.546;2023-08-06T03:28:11;6.90;;;4.45;;
20022;SDS011;10172;42.054;24.546;2023-08-06T03:30:37;8.80;;;4.57;;
20022;SDS011;10172;42.054;24.546;2023-08-06T03:33:02;17.15;;;4.57;;
20022;SDS011;10172;42.054;24.546;2023-08-06T03:35:28;6.53;;;4.55;;
20022;SDS011;10172;42.054;24.546;2023-08-06T03:37:53;6.68;;;3.95;;
20022;SDS011;10172;42.054;24.546;2023-08-06T03:40:19;7.47;;;4.93;;
20022;SDS011;10172;42.054;24.546;2023-08-06T03:42:44;7.22;;;4.45;;
20022;SDS011;10172;42.054;24.546;2023-08-06T03:45:09;7.03;;;4.25;;
20022;SDS011;10172;42.054;24.546;2023-08-06T03:47:35;9.55;;;4.78;;
20022;SDS011;10172;42.054;24.546;2023-08-06T03:50:01;6.53;;;4.30;;
20022;SDS011;10172;42.054;24.546;2023-08-06T03:52:26;9.25;;;4.88;;
20022;SDS011;10172;42.054;24.546;2023-08-06T03:54:51;11.27;;;4.65;;
20022;SDS011;10172;42.054;24.546;2023-08-06T03:57:17;8.50;;;4.07;;
20022;SDS011;10172;42.054;24.546;2023-08-06T03:59:42;7.32;;;4.50;;
20022;SDS011;10172;42.054;24.546;2023-08-06T04:02:08;7.22;;;4.40;;
20022;SDS011;10172;42.054;24.546;2023-08-06T04:04:33;9.55;;;4.57;;
20022;SDS011;10172;42.054;24.546;2023-08-06T04:06:59;9.95;;;4.50;;
20022;SDS011;10172;42.054;24.546;2023-08-06T04:09:24;6.32;;;3.80;;
20022;SDS011;10172;42.054;24.546;2023-08-06T04:11:50;5.25;;;3.03;;
20022;SDS011;10172;42.054;24.546;2023-08-06T04:14:15;5.28;;;3.38;;
20022;SDS011;10172;42.054;24.546;2023-08-06T04:16:41;7.15;;;3.60;;
20022;SDS011;10172;42.054;24.546;2023-08-06T04:19:06;4.90;;;3.13;;
20022;SDS011;10172;42.054;24.546;2023-08-06T04:21:31;5.88;;;3.10;;
20022;SDS011;10172;42.054;24.546;2023-08-06T04:23:57;5.65;;;3.45;;
20022;SDS011;10172;42.054;24.546;2023-08-06T04:26:22;7.30;;;3.17;;
20022;SDS011;10172;42.054;24.546;2023-08-06T04:28:48;5.22;;;3.10;;
20022;SDS011;10172;42.054;24.546;2023-08-06T04:31:14;5.70;;;3.28;;
20022;SDS011;10172;42.054;24.546;2023-08-06T04:33:39;6.53;;;3.20;;
20022;SDS011;10172;42.054;24.546;2023-08-06T04:36:05;5.97;;;3.25;;
20022;SDS011;10172;42.054;24.546;2023-08-06T04:38:31;5.20;;;2.90;;
20022;SDS011;10172;42.054;24.546;2023-08-06T04:40:57;7.03;;;2.88;;
20022;SDS011;10172;42.054;24.546;2023-08-06T04:43:23;5.47;;;2.88;;
20022;SDS011;10172;42.054;24.546;2023-08-06T04:45:49;5.15;;;3.53;;
20022;SDS011;10172;42.054;24.546;2023-08-06T04:48:16;4.35;;;2.95;;
20022;SDS011;10172;42.054;24.546;2023-08-06T04:50:45;6.97;;;2.60;;
20022;SDS011;10172;42.054;24.546;2023-08-06T04:53:11;4.00;;;2.55;;
20022;SDS011;10172;42.054;24.546;2023-08-06T04:55:37;6.25;;;3.42;;
20022;SDS011;10172;42.054;24.546;2023-08-06T04:58:03;6.30;;;2.88;;
20022;SDS011;10172;42.054;24.546;2023-08-06T05:00:29;4.70;;;2.70;;
20022;SDS011;10172;42.054;24.546;2023-08-06T05:02:54;5.47;;;2.97;;
20022;SDS011;10172;42.054;24.546;2023-08-06T05:05:20;5.55;;;2.88;;
20022;SDS011;10172;42.054;24.546;2023-08-06T05:07:48;5.32;;;2.67;;
20022;SDS011;10172;42.054;24.546;2023-08-06T05:10:14;8.70;;;2.90;;
20022;SDS011;10172;42.054;24.546;2023-08-06T05:12:40;6.28;;;3.20;;
20022;SDS011;10172;42.054;24.546;2023-08-06T05:15:06;6.68;;;3.10;;
20022;SDS011;10172;42.054;24.546;2023-08-06T05:17:32;4.72;;;2.55;;
20022;SDS011;10172;42.054;24.546;2023-08-06T05:19:57;6.22;;;2.70;;
20022;SDS011;10172;42.054;24.546;2023-08-06T05:22:22;3.33;;;2.40;;
20022;SDS011;10172;42.054;24.546;2023-08-06T05:24:48;4.57;;;2.50;;
20022;SDS011;10172;42.054;24.546;2023-08-06T05:27:14;5.15;;;2.65;;
20022;SDS011;10172;42.054;24.546;2023-08-06T05:29:39;4.95;;;2.42;;
20022;SDS011;10172;42.054;24.546;2023-08-06T05:32:05;3.90;;;2.75;;
20022;SDS011;10172;42.054;24.546;2023-08-06T05:34:30;5.45;;;3.05;;
20022;SDS011;10172;42.054;24.546;2023-08-06T05:36:56;4.07;;;2.65;;
20022;SDS011;10172;42.054;24.546;2023-08-06T05:39:21;3.70;;;2.38;;
20022;SDS011;10172;42.054;24.546;2023-08-06T05:41:47;4.43;;;2.20;;
20022;SDS011;10172;42.054;24.546;2023-08-06T05:44:12;6.18;;;2.88;;
20022;SDS011;10172;42.054;24.546;2023-08-06T05:46:37;7.35;;;2.72;;
20022;SDS011;10172;42.054;24.546;2023-08-06T05:49:03;5.15;;;3.13;;
20022;SDS011;10172;42.054;24.546;2023-08-06T05:51:30;4.75;;;3.28;;
20022;SDS011;10172;42.054;24.546;2023-08-06T05:53:55;6.75;;;2.90;;
20022;SDS011;10172;42.054;24.546;2023-08-06T05:56:21;7.40;;;2.70;;
20022;SDS011;10172;42.054;24.546;2023-08-06T05:58:46;6.00;;;3.17;;
20022;SDS011;10172;42.054;24.546;2023-08-06T06:01:12;4.95;;;3.00;;
20022;SDS011;10172;42.054;24.546;2023-08-06T06:03:38;4.82;;;2.90;;
20022;SDS011;10172;42.054;24.546;2023-08-06T06:06:04;5.32;;;3.15;;
20022;SDS011;10172;42.054;24.546;2023-08-06T06:08:29;5.30;;;2.80;;
20022;SDS011;10172;42.054;24.546;2023-08-06T06:10:55;5.03;;;2.88;;
20022;SDS011;10172;42.054;24.546;2023-08-06T06:13:20;4.45;;;2.92;;
20022;SDS011;10172;42.054;24.546;2023-08-06T06:15:46;4.68;;;3.03;;
20022;SDS011;10172;42.054;24.546;2023-08-06T06:18:12;4.95;;;3.03;;
20022;SDS011;10172;42.054;24.546;2023-08-06T06:20:38;7.20;;;3.30;;
20022;SDS011;10172;42.054;24.546;2023-08-06T06:23:03;7.32;;;3.50;;
20022;SDS011;10172;42.054;24.546;2023-08-06T06:25:29;5.53;;;3.30;;
20022;SDS011;10172;42.054;24.546;2023-08-06T06:27:54;6.43;;;3.30;;
20022;SDS011;10172;42.054;24.546;2023-08-06T06:30:19;6.68;;;3.00;;
20022;SDS011;10172;42.054;24.546;2023-08-06T06:32:45;5.85;;;3.53;;
20022;SDS011;10172;42.054;24.546;2023-08-06T06:35:10;6.53;;;3.20;;
20022;SDS011;10172;42.054;24.546;2023-08-06T06:37:36;5.35;;;3.20;;
20022;SDS011;10172;42.054;24.546;2023-08-06T06:40:01;5.65;;;3.20;;
20022;SDS011;10172;42.054;24.546;2023-08-06T06:42:27;4.63;;;2.70;;
20022;SDS011;10172;42.054;24.546;2023-08-06T06:44:52;3.83;;;2.75;;
20022;SDS011;10172;42.054;24.546;2023-08-06T06:47:18;6.45;;;3.30;;
20022;SDS011;10172;42.054;24.546;2023-08-06T06:49:43;3.80;;;3.08;;
20022;SDS011;10172;42.054;24.546;2023-08-06T06:52:09;5.18;;;3.20;;
20022;SDS011;10172;42.054;24.546;2023-08-06T06:54:34;5.63;;;3.45;;
20022;SDS011;10172;42.054;24.546;2023-08-06T06:56:59;4.47;;;2.72;;
20022;SDS011;10172;42.054;24.546;2023-08-06T06:59:25;4.28;;;2.95;;
20022;SDS011;10172;42.054;24.546;2023-08-06T07:01:50;6.45;;;2.55;;
20022;SDS011;10172;42.054;24.546;2023-08-06T07:04:16;5.20;;;3.15;;
20022;SDS011;10172;42.054;24.546;2023-08-06T07:06:41;4.00;;;2.83;;
20022;SDS011;10172;42.054;24.546;2023-08-06T07:09:07;6.03;;;2.72;;
20022;SDS011;10172;42.054;24.546;2023-08-06T07:11:32;3.47;;;2.30;;
20022;SDS011;10172;42.054;24.546;2023-08-06T07:13:58;5.60;;;3.20;;
20022;SDS011;10172;42.054;24.546;2023-08-06T07:16:24;6.95;;;3.08;;
20022;SDS011;10172;42.054;24.546;2023-08-06T07:18:53;6.88;;;3.35;;
20022;SDS011;10172;42.054;24.546;2023-08-06T07:21:19;5.10;;;2.70;;
20022;SDS011;10172;42.054;24.546;2023-08-06T07:23:45;6.25;;;2.65;;
20022;SDS011;10172;42.054;24.546;2023-08-06T07:26:11;6.60;;;2.72;;
20022;SDS011;10172;42.054;24.546;2023-08-06T07:28:36;5.18;;;2.35;;
20022;SDS011;10172;42.054;24.546;2023-08-06T07:31:02;6.93;;;2.90;;
20022;SDS011;10172;42.054;24.546;2023-08-06T07:33:28;4.20;;;2.17;;
20022;SDS011;10172;42.054;24.546;2023-08-06T07:35:54;6.90;;;2.75;;
20022;SDS011;10172;42.054;24.546;2023-08-06T07:38:19;5.07;;;2.50;;
20022;SDS011;10172;42.054;24.546;2023-08-06T07:40:45;5.82;;;2.35;;
20022;SDS011;10172;42.054;24.546;2023-08-06T07:43:10;4.22;;;2.42;;
20022;SDS011;10172;42.054;24.546;2023-08-06T07:45:36;4.07;;;2.50;;
20022;SDS011;10172;42.054;24.546;2023-08-06T07:48:02;3.17;;;2.25;;
20022;SDS011;10172;42.054;24.546;2023-08-06T07:50:28;4.50;;;2.55;;
20022;SDS011;10172;42.054;24.546;2023-08-06T07:52:54;5.60;;;2.33;;
20022;SDS011;10172;42.054;24.546;2023-08-06T07:55:19;3.60;;;2.50;;
20022;SDS011;10172;42.054;24.546;2023-08-06T07:57:45;5.85;;;2.75;;
20022;SDS011;10172;42.054;24.546;2023-08-06T08:00:10;4.90;;;2.88;;
20022;SDS011;10172;42.054;24.546;2023-08-06T08:02:36;5.70;;;3.17;;
20022;SDS011;10172;42.054;24.546;2023-08-06T08:05:01;7.75;;;2.55;;
20022;SDS011;10172;42.054;24.546;2023-08-06T08:07:27;5.03;;;2.60;;
20022;SDS011;10172;42.054;24.546;2023-08-06T08:09:55;4.82;;;2.47;;
20022;SDS011;10172;42.054;24.546;2023-08-06T08:12:21;6.55;;;2.90;;
20022;SDS011;10172;42.054;24.546;2023-08-06T08:14:47;4.30;;;2.17;;
20022;SDS011;10172;42.054;24.546;2023-08-06T08:17:13;5.43;;;1.95;;
20022;SDS011;10172;42.054;24.546;2023-08-06T08:19:39;4.22;;;2.20;;
20022;SDS011;10172;42.054;24.546;2023-08-06T08:22:05;3.85;;;1.95;;
20022;SDS011;10172;42.054;24.546;2023-08-06T08:24:31;5.43;;;2.13;;
20022;SDS011;10172;42.054;24.546;2023-08-06T08:26:56;4.25;;;2.35;;
20022;SDS011;10172;42.054;24.546;2023-08-06T08:29:22;4.20;;;2.40;;
20022;SDS011;10172;42.054;24.546;2023-08-06T08:31:48;3.72;;;2.00;;
20022;SDS011;10172;42.054;24.546;2023-08-06T08:34:18;2.78;;;1.92;;
20022;SDS011;10172;42.054;24.546;2023-08-06T08:36:44;4.60;;;2.35;;
20022;SDS011;10172;42.054;24.546;2023-08-06T08:39:12;4.28;;;2.30;;
20022;SDS011;10172;42.054;24.546;2023-08-06T08:41:38;3.70;;;2.30;;
20022;SDS011;10172;42.054;24.546;2023-08-06T08:44:04;5.75;;;2.13;;
20022;SDS011;10172;42.054;24.546;2023-08-06T08:46:33;2.88;;;1.98;;
20022;SDS011;10172;42.054;24.546;2023-08-06T08:49:01;3.10;;;1.88;;
20022;SDS011;10172;42.054;24.546;2023-08-06T08:51:27;5.03;;;2.00;;
20022;SDS011;10172;42.054;24.546;2023-08-06T08:53:53;4.55;;;1.92;;
20022;SDS011;10172;42.054;24.546;2023-08-06T08:56:21;3.60;;;2.30;;
20022;SDS011;10172;42.054;24.546;2023-08-06T08:58:47;3.60;;;2.20;;
20022;SDS011;10172;42.054;24.546;2023-08-06T09:01:13;3.38;;;2.00;;
20022;SDS011;10172;42.054;24.546;2023-08-06T09:03:40;3.95;;;2.25;;
20022;SDS011;10172;42.054;24.546;2023-08-06T09:06:06;4.03;;;2.20;;
20022;SDS011;10172;42.054;24.546;2023-08-06T09:08:34;3.47;;;2.33;;
20022;SDS011;10172;42.054;24.546;2023-08-06T09:11:03;5.13;;;2.30;;
20022;SDS011;10172;42.054;24.546;2023-08-06T09:13:30;4.10;;;2.83;;
20022;SDS011;10172;42.054;24.546;2023-08-06T09:15:55;3.65;;;2.08;;
20022;SDS011;10172;42.054;24.546;2023-08-06T09:18:27;4.22;;;2.13;;
20022;SDS011;10172;42.054;24.546;2023-08-06T09:20:55;3.92;;;2.70;;
20022;SDS011;10172;42.054;24.546;2023-08-06T09:23:21;3.53;;;1.95;;
20022;SDS011;10172;42.054;24.546;2023-08-06T09:25:54;4.28;;;2.60;;
20022;SDS011;10172;42.054;24.546;2023-08-06T09:28:20;3.25;;;2.35;;
20022;SDS011;10172;42.054;24.546;2023-08-06T09:30:46;4.38;;;2.30;;
20022;SDS011;10172;42.054;24.546;2023-08-06T09:33:14;4.00;;;2.47;;
20022;SDS011;10172;42.054;24.546;2023-08-06T09:35:43;4.00;;;2.42;;
20022;SDS011;10172;42.054;24.546;2023-08-06T09:38:10;4.85;;;2.60;;
20022;SDS011;10172;42.054;24.546;2023-08-06T09:40:36;4.05;;;2.20;;
20022;SDS011;10172;42.054;24.546;2023-08-06T09:43:02;4.13;;;2.60;;
20022;SDS011;10172;42.054;24.546;2023-08-06T09:45:30;5.25;;;2.17;;
20022;SDS011;10172;42.054;24.546;2023-08-06T09:48:00;5.72;;;2.85;;
20022;SDS011;10172;42.054;24.546;2023-08-06T09:50:30;4.35;;;2.65;;
20022;SDS011;10172;42.054;24.546;2023-08-06T09:52:57;5.35;;;2.80;;
20022;SDS011;10172;42.054;24.546;2023-08-06T09:55:24;5.43;;;3.20;;
20022;SDS011;10172;42.054;24.546;2023-08-06T09:57:51;5.72;;;3.30;;
20022;SDS011;10172;42.054;24.546;2023-08-06T10:00:17;4.22;;;2.58;;
20022;SDS011;10172;42.054;24.546;2023-08-06T10:02:43;5.15;;;2.58;;
20022;SDS011;10172;42.054;24.546;2023-08-06T10:05:10;6.75;;;2.97;;
20022;SDS011;10172;42.054;24.546;2023-08-06T10:07:35;3.92;;;2.58;;
20022;SDS011;10172;42.054;24.546;2023-08-06T10:10:04;4.57;;;2.80;;
20022;SDS011;10172;42.054;24.546;2023-08-06T10:12:31;5.43;;;3.40;;
20022;SDS011;10172;42.054;24.546;2023-08-06T10:15:01;3.83;;;3.10;;
20022;SDS011;10172;42.054;24.546;2023-08-06T10:17:29;4.32;;;2.67;;
20022;SDS011;10172;42.054;24.546;2023-08-06T10:19:58;6.50;;;3.15;;
20022;SDS011;10172;42.054;24.546;2023-08-06T10:22:24;4.22;;;2.90;;
20022;SDS011;10172;42.054;24.546;2023-08-06T10:32:51;5.88;;;3.60;;
20022;SDS011;10172;42.054;24.546;2023-08-06T10:38:15;5.10;;;3.00;;
20022;SDS011;10172;42.054;24.546;2023-08-06T10:41:04;5.38;;;3.55;;
20022;SDS011;10172;42.054;24.546;2023-08-06T10:45:58;4.45;;;3.35;;
20022;SDS011;10172;42.054;24.546;2023-08-06T10:51:09;6.53;;;3.78;;
20022;SDS011;10172;42.054;24.546;2023-08-06T10:53:36;5.47;;;3.72;;
20022;SDS011;10172;42.054;24.546;2023-08-06T10:56:11;7.68;;;3.67;;
20022;SDS011;10172;42.054;24.546;2023-08-06T10:58:38;6.32;;;3.70;;
20022;SDS011;10172;42.054;24.546;2023-08-06T11:01:04;5.72;;;3.85;;
20022;SDS011;10172;42.054;24.546;2023-08-06T11:03:29;5.05;;;3.45;;
20022;SDS011;10172;42.054;24.546;2023-08-06T11:05:57;4.43;;;3.20;;
20022;SDS011;10172;42.054;24.546;2023-08-06T11:08:26;4.43;;;3.42;;
20022;SDS011;10172;42.054;24.546;2023-08-06T11:10:53;3.75;;;2.92;;
20022;SDS011;10172;42.054;24.546;2023-08-06T11:13:22;5.50;;;3.72;;
20022;SDS011;10172;42.054;24.546;2023-08-06T11:15:47;6.05;;;3.53;;
20022;SDS011;10172;42.054;24.546;2023-08-06T11:18:13;5.00;;;3.33;;
20022;SDS011;10172;42.054;24.546;2023-08-06T11:20:38;5.25;;;3.75;;
20022;SDS011;10172;42.054;24.546;2023-08-06T11:23:05;5.00;;;3.50;;
20022;SDS011;10172;42.054;24.546;2023-08-06T11:25:31;5.65;;;3.15;;
20022;SDS011;10172;42.054;24.546;2023-08-06T11:28:01;7.35;;;3.63;;
20022;SDS011;10172;42.054;24.546;2023-08-06T11:30:26;4.38;;;3.08;;
20022;SDS011;10172;42.054;24.546;2023-08-06T11:32:52;4.00;;;3.10;;
20022;SDS011;10172;42.054;24.546;2023-08-06T11:35:17;4.25;;;3.10;;
20022;SDS011;10172;42.054;24.546;2023-08-06T11:37:43;3.03;;;2.25;;
20022;SDS011;10172;42.054;24.546;2023-08-06T11:40:11;3.67;;;2.47;;
20022;SDS011;10172;42.054;24.546;2023-08-06T11:42:37;5.90;;;2.60;;
20022;SDS011;10172;42.054;24.546;2023-08-06T11:45:03;4.63;;;2.30;;
20022;SDS011;10172;42.054;24.546;2023-08-06T11:47:29;3.20;;;2.00;;
20022;SDS011;10172;42.054;24.546;2023-08-06T11:49:55;3.30;;;2.15;;
20022;SDS011;10172;42.054;24.546;2023-08-06T11:52:24;3.35;;;2.42;;
20022;SDS011;10172;42.054;24.546;2023-08-06T11:55:06;4.53;;;2.03;;
20022;SDS011;10172;42.054;24.546;2023-08-06T11:57:39;3.38;;;2.00;;
20022;SDS011;10172;42.054;24.546;2023-08-06T12:00:10;2.92;;;1.85;;
20022;SDS011;10172;42.054;24.546;2023-08-06T12:02:38;1.88;;;1.58;;
20022;SDS011;10172;42.054;24.546;2023-08-06T12:07:38;5.60;;;2.30;;
20022;SDS011;10172;42.054;24.546;2023-08-06T12:10:05;3.30;;;2.30;;
20022;SDS011;10172;42.054;24.546;2023-08-06T12:12:31;3.08;;;2.03;;
20022;SDS011;10172;42.054;24.546;2023-08-06T12:14:57;2.67;;;1.73;;
20022;SDS011;10172;42.054;24.546;2023-08-06T12:17:23;2.78;;;1.95;;
20022;SDS011;10172;42.054;24.546;2023-08-06T12:19:49;1.83;;;1.55;;
20022;SDS011;10172;42.054;24.546;2023-08-06T12:22:15;2.80;;;1.48;;
20022;SDS011;10172;42.054;24.546;2023-08-06T12:24:44;1.95;;;1.40;;
20022;SDS011;10172;42.054;24.546;2023-08-06T12:27:11;1.67;;;1.30;;
20022;SDS011;10172;42.054;24.546;2023-08-06T12:29:37;2.22;;;1.40;;
20022;SDS011;10172;42.054;24.546;2023-08-06T12:32:07;3.17;;;1.65;;
20022;SDS011;10172;42.054;24.546;2023-08-06T12:34:33;1.73;;;1.25;;
20022;SDS011;10172;42.054;24.546;2023-08-06T12:36:58;2.28;;;1.30;;
20022;SDS011;10172;42.054;24.546;2023-08-06T12:39:24;3.00;;;1.65;;
20022;SDS011;10172;42.054;24.546;2023-08-06T12:41:49;6.68;;;1.77;;
20022;SDS011;10172;42.054;24.546;2023-08-06T12:44:15;2.22;;;1.50;;
20022;SDS011;10172;42.054;24.546;2023-08-06T12:46:40;2.17;;;1.48;;
20022;SDS011;10172;42.054;24.546;2023-08-06T12:49:06;1.45;;;1.23;;
20022;SDS011;10172;42.054;24.546;2023-08-06T12:51:32;1.65;;;1.17;;
20022;SDS011;10172;42.054;24.546;2023-08-06T12:53:59;1.70;;;1.00;;
20022;SDS011;10172;42.054;24.546;2023-08-06T12:56:24;2.10;;;1.38;;
20022;SDS011;10172;42.054;24.546;2023-08-06T12:58:50;2.10;;;1.38;;
20022;SDS011;10172;42.054;24.546;2023-08-06T13:01:15;2.05;;;1.25;;
20022;SDS011;10172;42.054;24.546;2023-08-06T13:03:41;2.05;;;1.25;;
20022;SDS011;10172;42.054;24.546;2023-08-06T13:06:06;2.00;;;1.30;;
20022;SDS011;10172;42.054;24.546;2023-08-06T13:08:32;2.03;;;1.40;;
20022;SDS011;10172;42.054;24.546;2023-08-06T13:10:58;3.13;;;1.20;;
20022;SDS011;10172;42.054;24.546;2023-08-06T13:13:23;2.58;;;1.23;;
20022;SDS011;10172;42.054;24.546;2023-08-06T13:15:51;4.07;;;1.60;;
20022;SDS011;10172;42.054;24.546;2023-08-06T13:18:17;2.35;;;1.42;;
20022;SDS011;10172;42.054;24.546;2023-08-06T13:20:43;1.55;;;1.10;;
20022;SDS011;10172;42.054;24.546;2023-08-06T13:23:09;1.95;;;1.35;;
20022;SDS011;10172;42.054;24.546;2023-08-06T13:25:34;2.03;;;1.38;;
20022;SDS011;10172;42.054;24.546;2023-08-06T13:28:05;3.70;;;1.35;;
20022;SDS011;10172;42.054;24.546;2023-08-06T13:30:30;1.63;;;1.13;;
20022;SDS011;10172;42.054;24.546;2023-08-06T13:32:56;2.75;;;1.17;;
20022;SDS011;10172;42.054;24.546;2023-08-06T13:35:22;2.28;;;0.93;;
20022;SDS011;10172;42.054;24.546;2023-08-06T13:37:48;1.85;;;1.00;;
20022;SDS011;10172;42.054;24.546;2023-08-06T13:40:14;2.05;;;1.20;;
20022;SDS011;10172;42.054;24.546;2023-08-06T13:42:39;2.08;;;1.35;;
20022;SDS011;10172;42.054;24.546;2023-08-06T13:45:05;1.52;;;1.05;;
20022;SDS011;10172;42.054;24.546;2023-08-06T13:47:32;1.40;;;1.05;;
20022;SDS011;10172;42.054;24.546;2023-08-06T13:49:57;1.23;;;0.88;;
20022;SDS011;10172;42.054;24.546;2023-08-06T13:52:24;1.23;;;0.95;;
20022;SDS011;10172;42.054;24.546;2023-08-06T13:54:51;1.88;;;0.85;;
20022;SDS011;10172;42.054;24.546;2023-08-06T13:57:16;1.77;;;1.00;;
20022;SDS011;10172;42.054;24.546;2023-08-06T13:59:42;2.40;;;1.10;;
20022;SDS011;10172;42.054;24.546;2023-08-06T14:02:08;2.08;;;0.95;;
20022;SDS011;10172;42.054;24.546;2023-08-06T14:04:34;2.75;;;1.20;;
20022;SDS011;10172;42.054;24.546;2023-08-06T14:07:00;1.88;;;1.30;;
20022;SDS011;10172;42.054;24.546;2023-08-06T14:09:25;1.70;;;0.90;;
20022;SDS011;10172;42.054;24.546;2023-08-06T14:11:50;1.10;;;0.90;;
20022;SDS011;10172;42.054;24.546;2023-08-06T14:14:16;1.30;;;0.90;;
20022;SDS011;10172;42.054;24.546;2023-08-06T14:16:41;1.70;;;1.00;;
20022;SDS011;10172;42.054;24.546;2023-08-06T14:19:07;1.42;;;0.93;;
20022;SDS011;10172;42.054;24.546;2023-08-06T14:21:33;2.35;;;1.13;;
20022;SDS011;10172;42.054;24.546;2023-08-06T14:23:58;2.03;;;1.25;;
20022;SDS011;10172;42.054;24.546;2023-08-06T14:26:24;1.38;;;0.93;;
20022;SDS011;10172;42.054;24.546;2023-08-06T14:28:49;1.38;;;1.00;;
20022;SDS011;10172;42.054;24.546;2023-08-06T14:31:19;3.55;;;1.48;;
20022;SDS011;10172;42.054;24.546;2023-08-06T14:33:45;1.67;;;1.20;;
20022;SDS011;10172;42.054;24.546;2023-08-06T14:36:10;3.17;;;1.30;;
20022;SDS011;10172;42.054;24.546;2023-08-06T14:38:35;1.67;;;1.10;;
20022;SDS011;10172;42.054;24.546;2023-08-06T14:41:01;2.45;;;1.17;;
20022;SDS011;10172;42.054;24.546;2023-08-06T14:43:26;1.58;;;1.10;;
20022;SDS011;10172;42.054;24.546;2023-08-06T14:45:52;1.63;;;1.00;;
20022;SDS011;10172;42.054;24.546;2023-08-06T14:48:17;2.22;;;1.38;;
20022;SDS011;10172;42.054;24.546;2023-08-06T14:50:43;1.45;;;1.10;;
20022;SDS011;10172;42.054;24.546;2023-08-06T14:53:09;2.42;;;0.93;;